sensor_id;sensor_type;location;lat;lon;timestamp;P1;durP1;ratioP1;P2;durP2;ratioP2
22652;SDS011;11493;43.344;26.226;2023-08-07T00:02:11;6.30;;;5.70;;
22652;SDS011;11493;43.344;26.226;2023-08-07T00:04:38;5.97;;;5.47;;
22652;SDS011;11493;43.344;26.226;2023-08-07T00:07:06;6.47;;;5.97;;
22652;SDS011;11493;43.344;26.226;2023-08-07T00:09:34;6.55;;;5.97;;
22652;SDS011;11493;43.344;26.226;2023-08-07T00:12:01;6.25;;;4.97;;
22652;SDS011;11493;43.344;26.226;2023-08-07T00:14:30;4.97;;;4.57;;
22652;SDS011;11493;43.344;26.226;2023-08-07T00:16:58;5.72;;;5.32;;
22652;SDS011;11493;43.344;26.226;2023-08-07T00:19:26;5.97;;;5.47;;
22652;SDS011;11493;43.344;26.226;2023-08-07T00:21:53;5.05;;;4.50;;
22652;SDS011;11493;43.344;26.226;2023-08-07T00:24:21;4.82;;;4.50;;
22652;SDS011;11493;43.344;26.226;2023-08-07T00:26:48;4.97;;;4.57;;
22652;SDS011;11493;43.344;26.226;2023-08-07T00:29:15;4.35;;;3.95;;
22652;SDS011;11493;43.344;26.226;2023-08-07T00:31:42;4.38;;;4.03;;
22652;SDS011;11493;43.344;26.226;2023-08-07T00:34:10;4.47;;;4.10;;
22652;SDS011;11493;43.344;26.226;2023-08-07T00:36:37;4.50;;;4.18;;
22652;SDS011;11493;43.344;26.226;2023-08-07T00:39:05;4.30;;;4.00;;
22652;SDS011;11493;43.344;26.226;2023-08-07T00:41:38;4.45;;;4.15;;
22652;SDS011;11493;43.344;26.226;2023-08-07T00:44:06;4.40;;;3.92;;
22652;SDS011;11493;43.344;26.226;2023-08-07T00:46:33;5.88;;;4.00;;
22652;SDS011;11493;43.344;26.226;2023-08-07T00:49:01;4.63;;;4.32;;
22652;SDS011;11493;43.344;26.226;2023-08-07T00:51:28;4.68;;;4.38;;
22652;SDS011;11493;43.344;26.226;2023-08-07T00:53:56;3.65;;;3.35;;
22652;SDS011;11493;43.344;26.226;2023-08-07T00:56:23;4.35;;;3.95;;
22652;SDS011;11493;43.344;26.226;2023-08-07T00:58:52;3.58;;;3.28;;
22652;SDS011;11493;43.344;26.226;2023-08-07T01:01:20;4.93;;;3.97;;
22652;SDS011;11493;43.344;26.226;2023-08-07T01:03:47;4.32;;;4.00;;
22652;SDS011;11493;43.344;26.226;2023-08-07T01:06:14;3.67;;;3.38;;
22652;SDS011;11493;43.344;26.226;2023-08-07T01:08:41;5.05;;;3.65;;
22652;SDS011;11493;43.344;26.226;2023-08-07T01:13:54;4.30;;;3.45;;
22652;SDS011;11493;43.344;26.226;2023-08-07T01:16:42;3.92;;;3.63;;
22652;SDS011;11493;43.344;26.226;2023-08-07T01:19:22;4.05;;;3.33;;
22652;SDS011;11493;43.344;26.226;2023-08-07T01:22:04;3.67;;;3.42;;
22652;SDS011;11493;43.344;26.226;2023-08-07T01:24:34;4.32;;;3.60;;
22652;SDS011;11493;43.344;26.226;2023-08-07T01:32:40;3.28;;;3.08;;
22652;SDS011;11493;43.344;26.226;2023-08-07T01:35:08;3.83;;;3.53;;
22652;SDS011;11493;43.344;26.226;2023-08-07T01:37:39;4.53;;;3.22;;
22652;SDS011;11493;43.344;26.226;2023-08-07T01:40:09;3.55;;;3.28;;
22652;SDS011;11493;43.344;26.226;2023-08-07T01:42:39;3.03;;;2.80;;
22652;SDS011;11493;43.344;26.226;2023-08-07T01:45:07;3.08;;;2.88;;
22652;SDS011;11493;43.344;26.226;2023-08-07T01:47:35;3.30;;;3.00;;
22652;SDS011;11493;43.344;26.226;2023-08-07T01:50:02;3.67;;;2.85;;
22652;SDS011;11493;43.344;26.226;2023-08-07T01:52:29;2.97;;;2.78;;
22652;SDS011;11493;43.344;26.226;2023-08-07T01:54:57;2.60;;;2.40;;
22652;SDS011;11493;43.344;26.226;2023-08-07T01:57:25;2.85;;;2.65;;
22652;SDS011;11493;43.344;26.226;2023-08-07T01:59:54;3.78;;;2.65;;
22652;SDS011;11493;43.344;26.226;2023-08-07T02:02:23;2.85;;;2.63;;
22652;SDS011;11493;43.344;26.226;2023-08-07T02:04:51;2.83;;;2.60;;
22652;SDS011;11493;43.344;26.226;2023-08-07T02:07:19;2.60;;;2.40;;
22652;SDS011;11493;43.344;26.226;2023-08-07T02:09:46;4.55;;;2.53;;
22652;SDS011;11493;43.344;26.226;2023-08-07T02:12:13;3.00;;;2.80;;
22652;SDS011;11493;43.344;26.226;2023-08-07T02:14:40;2.42;;;2.22;;
22652;SDS011;11493;43.344;26.226;2023-08-07T02:17:07;2.67;;;2.47;;
22652;SDS011;11493;43.344;26.226;2023-08-07T02:19:35;3.70;;;2.45;;
22652;SDS011;11493;43.344;26.226;2023-08-07T02:22:02;2.90;;;1.95;;
22652;SDS011;11493;43.344;26.226;2023-08-07T02:24:29;4.90;;;2.08;;
22652;SDS011;11493;43.344;26.226;2023-08-07T02:26:56;2.17;;;2.08;;
22652;SDS011;11493;43.344;26.226;2023-08-07T02:29:24;2.55;;;2.35;;
22652;SDS011;11493;43.344;26.226;2023-08-07T02:31:51;2.83;;;2.40;;
22652;SDS011;11493;43.344;26.226;2023-08-07T02:34:18;2.13;;;1.92;;
22652;SDS011;11493;43.344;26.226;2023-08-07T02:36:45;2.28;;;2.08;;
22652;SDS011;11493;43.344;26.226;2023-08-07T02:39:13;2.17;;;1.98;;
22652;SDS011;11493;43.344;26.226;2023-08-07T02:41:40;1.80;;;1.70;;
22652;SDS011;11493;43.344;26.226;2023-08-07T02:44:07;2.40;;;2.03;;
22652;SDS011;11493;43.344;26.226;2023-08-07T02:46:34;3.97;;;2.17;;
22652;SDS011;11493;43.344;26.226;2023-08-07T02:49:02;2.13;;;2.03;;
22652;SDS011;11493;43.344;26.226;2023-08-07T02:51:30;2.25;;;2.05;;
22652;SDS011;11493;43.344;26.226;2023-08-07T02:53:58;1.70;;;1.60;;
22652;SDS011;11493;43.344;26.226;2023-08-07T02:56:25;2.13;;;1.92;;
22652;SDS011;11493;43.344;26.226;2023-08-07T02:58:52;2.95;;;1.77;;
22652;SDS011;11493;43.344;26.226;2023-08-07T03:01:20;2.65;;;1.60;;
22652;SDS011;11493;43.344;26.226;2023-08-07T03:03:48;2.45;;;1.67;;
22652;SDS011;11493;43.344;26.226;2023-08-07T03:06:14;3.28;;;1.60;;
22652;SDS011;11493;43.344;26.226;2023-08-07T03:08:41;2.05;;;1.85;;
22652;SDS011;11493;43.344;26.226;2023-08-07T03:11:09;2.40;;;1.50;;
22652;SDS011;11493;43.344;26.226;2023-08-07T03:13:36;2.38;;;1.50;;
22652;SDS011;11493;43.344;26.226;2023-08-07T03:16:04;1.88;;;1.50;;
22652;SDS011;11493;43.344;26.226;2023-08-07T03:18:33;1.65;;;1.55;;
22652;SDS011;11493;43.344;26.226;2023-08-07T03:21:01;2.50;;;1.70;;
22652;SDS011;11493;43.344;26.226;2023-08-07T03:23:28;2.15;;;1.95;;
22652;SDS011;11493;43.344;26.226;2023-08-07T03:26:05;2.20;;;1.80;;
22652;SDS011;11493;43.344;26.226;2023-08-07T03:28:45;2.38;;;2.17;;
22652;SDS011;11493;43.344;26.226;2023-08-07T03:31:14;1.95;;;1.75;;
22652;SDS011;11493;43.344;26.226;2023-08-07T03:33:42;2.08;;;1.95;;
22652;SDS011;11493;43.344;26.226;2023-08-07T03:36:09;1.73;;;1.63;;
22652;SDS011;11493;43.344;26.226;2023-08-07T03:38:37;2.10;;;1.75;;
22652;SDS011;11493;43.344;26.226;2023-08-07T03:41:05;1.95;;;1.85;;
22652;SDS011;11493;43.344;26.226;2023-08-07T03:43:32;2.05;;;1.65;;
22652;SDS011;11493;43.344;26.226;2023-08-07T03:45:59;2.13;;;1.85;;
22652;SDS011;11493;43.344;26.226;2023-08-07T03:48:30;1.93;;;1.83;;
22652;SDS011;11493;43.344;26.226;2023-08-07T03:51:07;2.67;;;1.52;;
22652;SDS011;11493;43.344;26.226;2023-08-07T03:53:42;2.95;;;1.95;;
22652;SDS011;11493;43.344;26.226;2023-08-07T03:56:10;2.08;;;1.98;;
22652;SDS011;11493;43.344;26.226;2023-08-07T03:58:37;2.95;;;1.77;;
22652;SDS011;11493;43.344;26.226;2023-08-07T04:01:06;2.22;;;2.05;;
22652;SDS011;11493;43.344;26.226;2023-08-07T04:03:33;1.80;;;1.70;;
22652;SDS011;11493;43.344;26.226;2023-08-07T04:06:00;4.40;;;1.90;;
22652;SDS011;11493;43.344;26.226;2023-08-07T04:08:28;2.33;;;2.13;;
22652;SDS011;11493;43.344;26.226;2023-08-07T04:11:02;2.20;;;1.80;;
22652;SDS011;11493;43.344;26.226;2023-08-07T04:13:34;2.10;;;1.92;;
22652;SDS011;11493;43.344;26.226;2023-08-07T04:16:01;4.90;;;2.00;;
22652;SDS011;11493;43.344;26.226;2023-08-07T04:18:32;2.00;;;1.90;;
22652;SDS011;11493;43.344;26.226;2023-08-07T04:21:01;2.28;;;2.17;;
22652;SDS011;11493;43.344;26.226;2023-08-07T04:23:30;5.10;;;1.88;;
22652;SDS011;11493;43.344;26.226;2023-08-07T04:25:58;2.30;;;2.10;;
22652;SDS011;11493;43.344;26.226;2023-08-07T04:28:27;5.03;;;2.03;;
22652;SDS011;11493;43.344;26.226;2023-08-07T04:30:55;2.88;;;1.95;;
22652;SDS011;11493;43.344;26.226;2023-08-07T04:33:22;2.67;;;2.20;;
22652;SDS011;11493;43.344;26.226;2023-08-07T04:35:49;3.72;;;2.17;;
22652;SDS011;11493;43.344;26.226;2023-08-07T04:38:17;2.55;;;2.35;;
22652;SDS011;11493;43.344;26.226;2023-08-07T04:40:47;2.35;;;2.15;;
22652;SDS011;11493;43.344;26.226;2023-08-07T04:43:17;4.32;;;2.20;;
22652;SDS011;11493;43.344;26.226;2023-08-07T04:45:48;6.65;;;2.70;;
22652;SDS011;11493;43.344;26.226;2023-08-07T04:48:15;2.50;;;2.30;;
22652;SDS011;11493;43.344;26.226;2023-08-07T04:50:44;2.50;;;2.30;;
22652;SDS011;11493;43.344;26.226;2023-08-07T04:53:11;2.22;;;2.13;;
22652;SDS011;11493;43.344;26.226;2023-08-07T04:55:38;2.75;;;2.55;;
22652;SDS011;11493;43.344;26.226;2023-08-07T04:58:06;2.47;;;2.28;;
22652;SDS011;11493;43.344;26.226;2023-08-07T05:00:33;5.03;;;2.67;;
22652;SDS011;11493;43.344;26.226;2023-08-07T05:03:09;2.70;;;2.50;;
22652;SDS011;11493;43.344;26.226;2023-08-07T05:05:37;4.80;;;2.47;;
22652;SDS011;11493;43.344;26.226;2023-08-07T05:08:04;2.83;;;2.63;;
22652;SDS011;11493;43.344;26.226;2023-08-07T05:10:31;5.50;;;2.65;;
22652;SDS011;11493;43.344;26.226;2023-08-07T05:12:59;2.55;;;2.35;;
22652;SDS011;11493;43.344;26.226;2023-08-07T05:15:26;4.63;;;2.53;;
22652;SDS011;11493;43.344;26.226;2023-08-07T05:17:55;2.92;;;2.72;;
22652;SDS011;11493;43.344;26.226;2023-08-07T05:20:22;3.00;;;2.80;;
22652;SDS011;11493;43.344;26.226;2023-08-07T05:22:49;2.85;;;2.65;;
22652;SDS011;11493;43.344;26.226;2023-08-07T05:25:16;3.20;;;2.97;;
22652;SDS011;11493;43.344;26.226;2023-08-07T05:27:45;2.83;;;2.63;;
22652;SDS011;11493;43.344;26.226;2023-08-07T05:30:13;4.65;;;2.85;;
22652;SDS011;11493;43.344;26.226;2023-08-07T05:32:40;2.92;;;2.60;;
22652;SDS011;11493;43.344;26.226;2023-08-07T05:35:08;2.50;;;2.40;;
22652;SDS011;11493;43.344;26.226;2023-08-07T05:37:37;5.05;;;2.33;;
22652;SDS011;11493;43.344;26.226;2023-08-07T05:40:04;2.20;;;2.10;;
22652;SDS011;11493;43.344;26.226;2023-08-07T05:42:32;4.95;;;2.92;;
22652;SDS011;11493;43.344;26.226;2023-08-07T05:45:01;3.53;;;2.58;;
22652;SDS011;11493;43.344;26.226;2023-08-07T05:47:28;2.72;;;2.53;;
22652;SDS011;11493;43.344;26.226;2023-08-07T05:49:55;2.88;;;2.13;;
22652;SDS011;11493;43.344;26.226;2023-08-07T05:52:22;2.50;;;2.30;;
22652;SDS011;11493;43.344;26.226;2023-08-07T05:54:49;5.72;;;2.05;;
22652;SDS011;11493;43.344;26.226;2023-08-07T05:57:17;2.65;;;2.25;;
22652;SDS011;11493;43.344;26.226;2023-08-07T05:59:44;3.75;;;1.85;;
22652;SDS011;11493;43.344;26.226;2023-08-07T06:02:12;3.05;;;1.90;;
22652;SDS011;11493;43.344;26.226;2023-08-07T06:04:39;2.45;;;1.80;;
22652;SDS011;11493;43.344;26.226;2023-08-07T06:07:07;1.70;;;1.60;;
22652;SDS011;11493;43.344;26.226;2023-08-07T06:09:35;2.85;;;1.63;;
22652;SDS011;11493;43.344;26.226;2023-08-07T06:12:02;1.73;;;1.60;;
22652;SDS011;11493;43.344;26.226;2023-08-07T06:14:29;3.08;;;1.58;;
22652;SDS011;11493;43.344;26.226;2023-08-07T06:16:56;1.92;;;1.60;;
22652;SDS011;11493;43.344;26.226;2023-08-07T06:19:24;1.73;;;1.63;;
22652;SDS011;11493;43.344;26.226;2023-08-07T06:21:58;5.85;;;1.90;;
22652;SDS011;11493;43.344;26.226;2023-08-07T06:24:26;2.35;;;1.80;;
22652;SDS011;11493;43.344;26.226;2023-08-07T06:26:55;1.70;;;1.60;;
22652;SDS011;11493;43.344;26.226;2023-08-07T06:29:22;1.67;;;1.58;;
22652;SDS011;11493;43.344;26.226;2023-08-07T06:31:49;1.55;;;1.35;;
22652;SDS011;11493;43.344;26.226;2023-08-07T06:34:17;1.60;;;1.50;;
22652;SDS011;11493;43.344;26.226;2023-08-07T06:36:44;1.60;;;1.50;;
22652;SDS011;11493;43.344;26.226;2023-08-07T06:39:11;2.13;;;1.60;;
22652;SDS011;11493;43.344;26.226;2023-08-07T06:41:38;4.53;;;1.60;;
22652;SDS011;11493;43.344;26.226;2023-08-07T06:44:07;1.50;;;1.25;;
22652;SDS011;11493;43.344;26.226;2023-08-07T06:46:34;1.45;;;1.35;;
22652;SDS011;11493;43.344;26.226;2023-08-07T06:49:02;1.55;;;1.45;;
22652;SDS011;11493;43.344;26.226;2023-08-07T06:51:29;3.65;;;1.38;;
22652;SDS011;11493;43.344;26.226;2023-08-07T06:53:56;1.77;;;1.15;;
22652;SDS011;11493;43.344;26.226;2023-08-07T06:56:23;1.65;;;1.55;;
22652;SDS011;11493;43.344;26.226;2023-08-07T06:58:50;2.30;;;1.52;;
22652;SDS011;11493;43.344;26.226;2023-08-07T07:01:17;2.45;;;1.10;;
22652;SDS011;11493;43.344;26.226;2023-08-07T07:03:44;3.75;;;1.55;;
22652;SDS011;11493;43.344;26.226;2023-08-07T07:06:13;3.25;;;1.55;;
22652;SDS011;11493;43.344;26.226;2023-08-07T07:08:41;3.75;;;1.40;;
22652;SDS011;11493;43.344;26.226;2023-08-07T07:11:08;4.75;;;1.50;;
22652;SDS011;11493;43.344;26.226;2023-08-07T07:13:35;2.15;;;1.48;;
22652;SDS011;11493;43.344;26.226;2023-08-07T07:16:02;1.25;;;1.15;;
22652;SDS011;11493;43.344;26.226;2023-08-07T07:18:29;1.20;;;1.20;;
22652;SDS011;11493;43.344;26.226;2023-08-07T07:20:57;1.15;;;1.05;;
22652;SDS011;11493;43.344;26.226;2023-08-07T07:23:27;2.03;;;0.95;;
22652;SDS011;11493;43.344;26.226;2023-08-07T07:25:55;1.55;;;1.00;;
22652;SDS011;11493;43.344;26.226;2023-08-07T07:28:24;1.30;;;1.20;;
22652;SDS011;11493;43.344;26.226;2023-08-07T07:30:51;3.05;;;1.20;;
22652;SDS011;11493;43.344;26.226;2023-08-07T07:33:18;3.45;;;1.35;;
22652;SDS011;11493;43.344;26.226;2023-08-07T07:35:45;2.75;;;1.27;;
22652;SDS011;11493;43.344;26.226;2023-08-07T07:38:13;1.80;;;1.20;;
22652;SDS011;11493;43.344;26.226;2023-08-07T07:40:40;1.38;;;1.00;;
22652;SDS011;11493;43.344;26.226;2023-08-07T07:43:08;3.58;;;1.65;;
22652;SDS011;11493;43.344;26.226;2023-08-07T07:45:35;1.75;;;1.63;;
22652;SDS011;11493;43.344;26.226;2023-08-07T07:48:03;2.78;;;1.38;;
22652;SDS011;11493;43.344;26.226;2023-08-07T07:50:30;3.53;;;1.58;;
22652;SDS011;11493;43.344;26.226;2023-08-07T07:52:57;1.48;;;1.38;;
22652;SDS011;11493;43.344;26.226;2023-08-07T07:55:25;2.75;;;1.00;;
22652;SDS011;11493;43.344;26.226;2023-08-07T07:57:53;2.45;;;1.17;;
22652;SDS011;11493;43.344;26.226;2023-08-07T08:00:22;2.88;;;1.63;;
22652;SDS011;11493;43.344;26.226;2023-08-07T08:02:53;2.97;;;1.20;;
22652;SDS011;11493;43.344;26.226;2023-08-07T08:05:20;2.17;;;1.20;;
22652;SDS011;11493;43.344;26.226;2023-08-07T08:07:48;1.08;;;1.08;;
22652;SDS011;11493;43.344;26.226;2023-08-07T08:10:15;4.10;;;1.15;;
22652;SDS011;11493;43.344;26.226;2023-08-07T08:12:43;2.20;;;0.95;;
22652;SDS011;11493;43.344;26.226;2023-08-07T08:15:10;0.93;;;0.93;;
22652;SDS011;11493;43.344;26.226;2023-08-07T08:17:37;2.55;;;1.33;;
22652;SDS011;11493;43.344;26.226;2023-08-07T08:20:05;1.30;;;1.20;;
22652;SDS011;11493;43.344;26.226;2023-08-07T08:22:33;1.13;;;1.02;;
22652;SDS011;11493;43.344;26.226;2023-08-07T08:25:01;1.20;;;1.10;;
22652;SDS011;11493;43.344;26.226;2023-08-07T08:27:31;2.85;;;1.10;;
22652;SDS011;11493;43.344;26.226;2023-08-07T08:29:58;2.28;;;1.45;;
22652;SDS011;11493;43.344;26.226;2023-08-07T08:32:25;1.48;;;1.05;;
22652;SDS011;11493;43.344;26.226;2023-08-07T08:34:53;1.70;;;1.02;;
22652;SDS011;11493;43.344;26.226;2023-08-07T08:37:20;1.00;;;0.90;;
22652;SDS011;11493;43.344;26.226;2023-08-07T08:39:47;5.28;;;1.73;;
22652;SDS011;11493;43.344;26.226;2023-08-07T08:42:14;5.13;;;1.30;;
22652;SDS011;11493;43.344;26.226;2023-08-07T08:44:42;3.72;;;1.00;;
22652;SDS011;11493;43.344;26.226;2023-08-07T08:47:18;1.05;;;0.95;;
22652;SDS011;11493;43.344;26.226;2023-08-07T08:49:58;3.72;;;1.10;;
22652;SDS011;11493;43.344;26.226;2023-08-07T08:52:31;1.23;;;1.00;;
22652;SDS011;11493;43.344;26.226;2023-08-07T08:55:01;1.10;;;1.00;;
22652;SDS011;11493;43.344;26.226;2023-08-07T08:57:33;2.83;;;1.10;;
22652;SDS011;11493;43.344;26.226;2023-08-07T09:00:00;2.75;;;1.02;;
22652;SDS011;11493;43.344;26.226;2023-08-07T09:02:33;4.25;;;1.00;;
22652;SDS011;11493;43.344;26.226;2023-08-07T09:05:01;1.23;;;1.13;;
22652;SDS011;11493;43.344;26.226;2023-08-07T09:07:29;1.98;;;1.10;;
22652;SDS011;11493;43.344;26.226;2023-08-07T09:09:56;1.30;;;1.20;;
22652;SDS011;11493;43.344;26.226;2023-08-07T09:12:29;2.42;;;1.05;;
22652;SDS011;11493;43.344;26.226;2023-08-07T09:14:59;1.77;;;1.10;;
22652;SDS011;11493;43.344;26.226;2023-08-07T09:17:31;1.42;;;0.90;;
22652;SDS011;11493;43.344;26.226;2023-08-07T09:20:02;3.38;;;1.10;;
22652;SDS011;11493;43.344;26.226;2023-08-07T09:22:31;1.35;;;1.05;;
22652;SDS011;11493;43.344;26.226;2023-08-07T09:24:58;2.95;;;1.02;;
22652;SDS011;11493;43.344;26.226;2023-08-07T09:27:26;2.67;;;1.33;;
22652;SDS011;11493;43.344;26.226;2023-08-07T09:29:55;1.17;;;1.00;;
22652;SDS011;11493;43.344;26.226;2023-08-07T09:32:22;1.63;;;1.15;;
22652;SDS011;11493;43.344;26.226;2023-08-07T09:34:51;1.02;;;1.00;;
22652;SDS011;11493;43.344;26.226;2023-08-07T09:37:23;1.15;;;1.00;;
22652;SDS011;11493;43.344;26.226;2023-08-07T09:39:50;1.10;;;0.98;;
22652;SDS011;11493;43.344;26.226;2023-08-07T09:42:18;1.13;;;0.85;;
22652;SDS011;11493;43.344;26.226;2023-08-07T09:44:45;1.17;;;0.80;;
22652;SDS011;11493;43.344;26.226;2023-08-07T09:47:14;2.25;;;0.90;;
22652;SDS011;11493;43.344;26.226;2023-08-07T09:49:42;1.45;;;1.08;;
22652;SDS011;11493;43.344;26.226;2023-08-07T09:52:11;1.45;;;0.80;;
22652;SDS011;11493;43.344;26.226;2023-08-07T09:54:46;2.17;;;0.80;;
22652;SDS011;11493;43.344;26.226;2023-08-07T09:57:13;1.10;;;0.80;;
22652;SDS011;11493;43.344;26.226;2023-08-07T09:59:43;5.07;;;0.82;;
22652;SDS011;11493;43.344;26.226;2023-08-07T10:02:16;0.60;;;0.60;;
22652;SDS011;11493;43.344;26.226;2023-08-07T10:04:43;1.55;;;0.90;;
22652;SDS011;11493;43.344;26.226;2023-08-07T10:07:11;2.53;;;0.80;;
22652;SDS011;11493;43.344;26.226;2023-08-07T10:09:41;0.90;;;0.68;;
22652;SDS011;11493;43.344;26.226;2023-08-07T10:12:09;0.93;;;0.70;;
22652;SDS011;11493;43.344;26.226;2023-08-07T10:14:36;1.25;;;0.68;;
22652;SDS011;11493;43.344;26.226;2023-08-07T10:17:04;0.63;;;0.60;;
22652;SDS011;11493;43.344;26.226;2023-08-07T10:19:32;0.50;;;0.50;;
22652;SDS011;11493;43.344;26.226;2023-08-07T10:21:59;3.55;;;0.70;;
22652;SDS011;11493;43.344;26.226;2023-08-07T10:24:27;0.95;;;0.52;;
22652;SDS011;11493;43.344;26.226;2023-08-07T10:26:57;1.40;;;0.63;;
22652;SDS011;11493;43.344;26.226;2023-08-07T10:29:26;1.17;;;0.60;;
22652;SDS011;11493;43.344;26.226;2023-08-07T10:31:55;1.23;;;1.05;;
22652;SDS011;11493;43.344;26.226;2023-08-07T10:34:25;0.60;;;0.60;;
22652;SDS011;11493;43.344;26.226;2023-08-07T10:36:56;6.28;;;0.52;;
22652;SDS011;11493;43.344;26.226;2023-08-07T10:39:24;1.02;;;0.60;;
22652;SDS011;11493;43.344;26.226;2023-08-07T10:41:54;0.88;;;0.50;;
22652;SDS011;11493;43.344;26.226;2023-08-07T10:44:22;1.65;;;0.50;;
22652;SDS011;11493;43.344;26.226;2023-08-07T10:46:56;2.05;;;0.50;;
22652;SDS011;11493;43.344;26.226;2023-08-07T10:49:37;0.63;;;0.57;;
22652;SDS011;11493;43.344;26.226;2023-08-07T10:52:11;1.27;;;0.60;;
22652;SDS011;11493;43.344;26.226;2023-08-07T10:54:50;0.80;;;0.60;;
22652;SDS011;11493;43.344;26.226;2023-08-07T10:57:18;1.00;;;0.50;;
22652;SDS011;11493;43.344;26.226;2023-08-07T10:59:50;3.00;;;0.40;;
22652;SDS011;11493;43.344;26.226;2023-08-07T11:02:29;2.50;;;0.68;;
22652;SDS011;11493;43.344;26.226;2023-08-07T11:04:57;3.05;;;0.50;;
22652;SDS011;11493;43.344;26.226;2023-08-07T11:07:28;2.35;;;0.73;;
22652;SDS011;11493;43.344;26.226;2023-08-07T11:09:57;0.95;;;0.60;;
22652;SDS011;11493;43.344;26.226;2023-08-07T11:12:25;0.70;;;0.65;;
22652;SDS011;11493;43.344;26.226;2023-08-07T11:14:54;0.50;;;0.50;;
22652;SDS011;11493;43.344;26.226;2023-08-07T11:17:24;1.90;;;0.90;;
22652;SDS011;11493;43.344;26.226;2023-08-07T11:19:53;0.50;;;0.47;;
22652;SDS011;11493;43.344;26.226;2023-08-07T11:22:21;2.10;;;0.50;;
22652;SDS011;11493;43.344;26.226;2023-08-07T11:24:49;1.88;;;0.50;;
22652;SDS011;11493;43.344;26.226;2023-08-07T11:27:18;0.80;;;0.60;;
22652;SDS011;11493;43.344;26.226;2023-08-07T11:29:47;3.92;;;0.47;;
22652;SDS011;11493;43.344;26.226;2023-08-07T11:32:17;3.10;;;0.50;;
22652;SDS011;11493;43.344;26.226;2023-08-07T11:34:50;0.70;;;0.50;;
22652;SDS011;11493;43.344;26.226;2023-08-07T11:37:18;4.53;;;0.45;;
22652;SDS011;11493;43.344;26.226;2023-08-07T11:39:45;1.60;;;0.40;;
22652;SDS011;11493;43.344;26.226;2023-08-07T11:42:13;1.58;;;0.68;;
22652;SDS011;11493;43.344;26.226;2023-08-07T11:44:40;0.55;;;0.50;;
22652;SDS011;11493;43.344;26.226;2023-08-07T11:47:08;0.52;;;0.52;;
22652;SDS011;11493;43.344;26.226;2023-08-07T11:49:36;1.48;;;0.60;;
22652;SDS011;11493;43.344;26.226;2023-08-07T11:52:04;0.80;;;0.50;;
22652;SDS011;11493;43.344;26.226;2023-08-07T11:54:32;0.45;;;0.45;;
22652;SDS011;11493;43.344;26.226;2023-08-07T11:56:59;0.70;;;0.50;;
22652;SDS011;11493;43.344;26.226;2023-08-07T11:59:28;2.22;;;0.47;;
22652;SDS011;11493;43.344;26.226;2023-08-07T12:01:55;0.88;;;0.50;;
22652;SDS011;11493;43.344;26.226;2023-08-07T12:04:23;1.17;;;0.45;;
22652;SDS011;11493;43.344;26.226;2023-08-07T12:06:53;1.10;;;0.50;;
22652;SDS011;11493;43.344;26.226;2023-08-07T12:09:23;1.45;;;0.60;;
22652;SDS011;11493;43.344;26.226;2023-08-07T12:11:59;1.55;;;0.60;;
22652;SDS011;11493;43.344;26.226;2023-08-07T12:14:30;1.13;;;0.60;;
22652;SDS011;11493;43.344;26.226;2023-08-07T12:17:00;1.27;;;0.45;;
22652;SDS011;11493;43.344;26.226;2023-08-07T12:19:35;0.57;;;0.30;;
22652;SDS011;11493;43.344;26.226;2023-08-07T12:22:07;0.40;;;0.40;;
22652;SDS011;11493;43.344;26.226;2023-08-07T12:24:36;0.85;;;0.40;;
22652;SDS011;11493;43.344;26.226;2023-08-07T12:27:04;2.40;;;0.50;;
22652;SDS011;11493;43.344;26.226;2023-08-07T12:29:32;1.85;;;0.40;;
22652;SDS011;11493;43.344;26.226;2023-08-07T12:32:00;0.80;;;0.47;;
22652;SDS011;11493;43.344;26.226;2023-08-07T12:34:29;3.63;;;0.45;;
22652;SDS011;11493;43.344;26.226;2023-08-07T12:36:59;1.48;;;0.68;;
22652;SDS011;11493;43.344;26.226;2023-08-07T12:39:26;0.68;;;0.40;;
22652;SDS011;11493;43.344;26.226;2023-08-07T12:41:56;0.30;;;0.30;;
22652;SDS011;11493;43.344;26.226;2023-08-07T12:46:54;0.65;;;0.50;;
22652;SDS011;11493;43.344;26.226;2023-08-07T12:49:21;0.60;;;0.43;;
22652;SDS011;11493;43.344;26.226;2023-08-07T12:51:50;1.15;;;0.43;;
22652;SDS011;11493;43.344;26.226;2023-08-07T12:54:18;0.45;;;0.45;;
22652;SDS011;11493;43.344;26.226;2023-08-07T12:56:45;0.30;;;0.22;;
22652;SDS011;11493;43.344;26.226;2023-08-07T12:59:12;2.88;;;0.40;;
22652;SDS011;11493;43.344;26.226;2023-08-07T13:01:39;0.88;;;0.30;;
22652;SDS011;11493;43.344;26.226;2023-08-07T13:04:07;0.60;;;0.30;;
22652;SDS011;11493;43.344;26.226;2023-08-07T13:06:35;0.35;;;0.30;;
22652;SDS011;11493;43.344;26.226;2023-08-07T13:09:03;0.47;;;0.30;;
22652;SDS011;11493;43.344;26.226;2023-08-07T13:11:30;0.52;;;0.40;;
22652;SDS011;11493;43.344;26.226;2023-08-07T13:16:51;1.27;;;0.30;;
22652;SDS011;11493;43.344;26.226;2023-08-07T13:19:19;0.45;;;0.30;;
22652;SDS011;11493;43.344;26.226;2023-08-07T13:21:47;0.40;;;0.28;;
22652;SDS011;11493;43.344;26.226;2023-08-07T13:24:28;1.70;;;0.38;;
22652;SDS011;11493;43.344;26.226;2023-08-07T13:27:04;1.40;;;0.50;;
22652;SDS011;11493;43.344;26.226;2023-08-07T13:29:32;3.10;;;0.30;;
22652;SDS011;11493;43.344;26.226;2023-08-07T13:32:05;0.30;;;0.30;;
22652;SDS011;11493;43.344;26.226;2023-08-07T13:34:36;0.80;;;0.50;;
22652;SDS011;11493;43.344;26.226;2023-08-07T13:37:04;0.65;;;0.40;;
22652;SDS011;11493;43.344;26.226;2023-08-07T13:39:32;0.20;;;0.20;;
22652;SDS011;11493;43.344;26.226;2023-08-07T13:42:00;0.60;;;0.30;;
22652;SDS011;11493;43.344;26.226;2023-08-07T13:44:27;3.15;;;0.30;;
22652;SDS011;11493;43.344;26.226;2023-08-07T13:46:56;0.50;;;0.30;;
22652;SDS011;11493;43.344;26.226;2023-08-07T13:49:23;1.42;;;0.40;;
22652;SDS011;11493;43.344;26.226;2023-08-07T13:51:50;1.17;;;0.30;;
22652;SDS011;11493;43.344;26.226;2023-08-07T13:54:20;0.68;;;0.40;;
22652;SDS011;11493;43.344;26.226;2023-08-07T13:56:54;3.03;;;0.20;;
22652;SDS011;11493;43.344;26.226;2023-08-07T13:59:21;0.82;;;0.30;;
22652;SDS011;11493;43.344;26.226;2023-08-07T14:01:48;2.38;;;0.30;;
22652;SDS011;11493;43.344;26.226;2023-08-07T14:04:16;1.00;;;0.40;;
22652;SDS011;11493;43.344;26.226;2023-08-07T14:06:43;2.05;;;0.30;;
22652;SDS011;11493;43.344;26.226;2023-08-07T14:09:11;0.63;;;0.52;;
22652;SDS011;11493;43.344;26.226;2023-08-07T14:11:39;0.30;;;0.30;;
22652;SDS011;11493;43.344;26.226;2023-08-07T14:14:10;1.98;;;0.30;;
22652;SDS011;11493;43.344;26.226;2023-08-07T14:16:37;0.73;;;0.45;;
22652;SDS011;11493;43.344;26.226;2023-08-07T14:19:05;1.95;;;0.32;;
22652;SDS011;11493;43.344;26.226;2023-08-07T14:21:33;5.28;;;0.40;;
22652;SDS011;11493;43.344;26.226;2023-08-07T14:24:00;0.30;;;0.30;;
22652;SDS011;11493;43.344;26.226;2023-08-07T14:26:27;2.13;;;0.38;;
22652;SDS011;11493;43.344;26.226;2023-08-07T14:28:56;1.75;;;0.30;;
22652;SDS011;11493;43.344;26.226;2023-08-07T14:31:23;1.13;;;0.50;;
22652;SDS011;11493;43.344;26.226;2023-08-07T14:33:51;0.73;;;0.20;;
22652;SDS011;11493;43.344;26.226;2023-08-07T14:36:22;1.08;;;0.90;;
22652;SDS011;11493;43.344;26.226;2023-08-07T14:38:51;0.70;;;0.40;;
22652;SDS011;11493;43.344;26.226;2023-08-07T14:41:33;0.73;;;0.68;;
22652;SDS011;11493;43.344;26.226;2023-08-07T14:44:01;3.67;;;1.33;;
22652;SDS011;11493;43.344;26.226;2023-08-07T14:46:30;0.65;;;0.50;;
22652;SDS011;11493;43.344;26.226;2023-08-07T14:48:57;2.28;;;0.50;;
22652;SDS011;11493;43.344;26.226;2023-08-07T14:51:25;0.70;;;0.38;;
22652;SDS011;11493;43.344;26.226;2023-08-07T14:53:57;3.20;;;0.90;;
22652;SDS011;11493;43.344;26.226;2023-08-07T14:56:24;1.17;;;0.40;;